Time;durP1;ratioP1;P1;durP2;ratioP2;P2;SDS_P1;SDS_P2;PMS_P1;PMS_P2;Temp;Humidity;BMP_temperature;BMP_pressure;BME280_temperature;BME280_humidity;BME280_pressure;Samples;Min_cycle;Max_cycle;Signal;HPM_P1;HPM_P2
2023/02/22 00:01:06;;;;;;;0.55;0.55;;;11.40;73.60;;;11.25;60.50;94932.38;5058049;28;20190;-19
2023/02/22 00:03:33;;;;;;;0.65;0.65;;;11.40;73.60;;;11.27;60.49;94931.16;5041240;28;20179;-19
2023/02/22 00:06:04;;;;;;;0.60;0.60;;;11.40;73.60;;;11.28;60.22;94924.91;5040182;28;20293;-20
2023/02/22 00:08:35;;;;;;;0.60;0.60;;;11.40;73.50;;;11.30;60.33;94935.22;5040032;28;20190;-19
2023/02/22 00:11:07;;;;;;;0.70;0.70;;;11.40;73.50;;;11.29;60.48;94928.34;5057557;28;20182;-19
2023/02/22 00:13:37;;;;;;;0.60;0.60;;;11.40;73.50;;;11.29;60.42;94936.22;5057440;28;20227;-19
2023/02/22 00:16:05;;;;;;;0.60;0.60;;;11.40;73.50;;;11.30;60.54;94929.97;5057483;28;20192;-19
2023/02/22 00:18:32;;;;;;;0.60;0.60;;;11.50;73.50;;;11.30;60.51;94933.41;5057412;28;20203;-19
2023/02/22 00:21:00;;;;;;;0.60;0.60;;;11.50;73.50;;;11.31;60.41;94932.38;5039825;28;20191;-20
2023/02/22 00:23:30;;;;;;;0.60;0.60;;;11.50;73.50;;;11.31;60.66;94934.22;5057537;28;20561;-20
2023/02/22 00:25:59;;;;;;;0.60;0.60;;;11.60;73.60;;;11.34;60.20;94934.63;5057039;28;20198;-19
2023/02/22 00:28:26;;;;;;;0.70;0.70;;;11.50;73.40;;;11.35;60.25;94938.88;5056953;28;20198;-19
2023/02/22 00:30:53;;;;;;;0.60;0.60;;;11.50;73.40;;;11.29;60.47;94923.91;5056423;28;20196;-22
2023/02/22 00:33:21;;;;;;;0.60;0.60;;;11.50;73.50;;;11.32;60.18;94923.50;5057012;28;20215;-20
2023/02/22 00:35:49;;;;;;;0.70;0.70;;;11.50;73.40;;;11.33;60.31;94929.59;5038511;28;20589;-19
2023/02/22 00:38:18;;;;;;;0.60;0.60;;;11.50;73.40;;;11.35;60.13;94924.94;5056760;28;20191;-20
2023/02/22 00:40:45;;;;;;;0.60;0.60;;;11.50;73.40;;;11.37;59.92;94928.97;5056715;28;20704;-19
2023/02/22 00:43:13;;;;;;;0.60;0.60;;;11.50;73.30;;;11.36;60.19;94930.00;5056652;28;20206;-19
2023/02/22 00:45:41;;;;;;;0.60;0.60;;;11.50;73.30;;;11.36;60.31;94931.81;5038875;28;20642;-19
2023/02/22 00:48:09;;;;;;;0.60;0.60;;;11.60;73.40;;;11.32;60.63;94934.00;5056555;28;20226;-19
2023/02/22 00:50:36;;;;;;;0.60;0.60;;;11.60;73.50;;;11.31;60.60;94923.72;5039193;28;20506;-19
2023/02/22 00:53:06;;;;;;;0.70;0.70;;;11.50;73.40;;;11.31;60.50;94926.34;5039600;28;20257;-19
2023/02/22 00:55:35;;;;;;;0.60;0.60;;;11.50;73.50;;;11.33;60.53;94921.72;5038955;28;20669;-20
2023/02/22 00:58:05;;;;;;;0.60;0.60;;;11.60;73.50;;;11.34;60.35;94928.59;5056659;28;20190;-19
2023/02/22 01:00:42;;;;;;;0.65;0.65;;;11.50;73.40;;;11.35;60.33;94925.75;5056245;28;20199;-19
2023/02/22 01:03:12;;;;;;;0.60;0.60;;;11.60;73.40;;;11.34;60.30;94929.38;5056565;28;20181;-20
2023/02/22 01:05:39;;;;;;;0.60;0.60;;;11.60;73.50;;;11.34;60.54;94928.59;5056085;28;20178;-20
2023/02/22 01:08:09;;;;;;;0.60;0.60;;;11.60;73.40;;;11.32;60.53;94920.09;5038712;28;20241;-19
2023/02/22 01:10:38;;;;;;;0.60;0.60;;;11.50;73.50;;;11.31;60.45;94926.34;5056139;28;20191;-20
2023/02/22 01:13:10;;;;;;;0.65;0.65;;;11.50;73.40;;;11.31;60.42;94928.97;5055974;28;20191;-19
2023/02/22 01:15:41;;;;;;;0.63;0.63;;;11.60;73.40;;;11.29;60.31;94930.97;5038381;28;20193;-19
2023/02/22 01:18:11;;;;;;;0.65;0.65;;;11.60;73.40;;;11.30;60.55;94922.91;5039235;28;20179;-19
2023/02/22 01:20:38;;;;;;;0.80;0.80;;;11.50;73.30;;;11.27;60.48;94931.16;5038753;28;20593;-19
2023/02/22 01:23:06;;;;;;;0.70;0.70;;;11.50;73.40;;;11.28;60.40;94921.47;5038258;28;20191;-19
2023/02/22 01:25:35;;;;;;;0.77;0.77;;;11.50;73.40;;;11.30;60.44;94920.28;5038189;28;20199;-19
2023/02/22 01:28:05;;;;;;;0.70;0.70;;;11.50;73.40;;;11.31;60.17;94927.13;5055695;28;20199;-19
2023/02/22 01:30:34;;;;;;;0.70;0.70;;;11.50;73.40;;;11.31;60.25;94921.88;5038972;28;20797;-19
2023/02/22 01:33:05;;;;;;;0.75;0.75;;;11.50;73.40;;;11.34;60.03;94920.72;5038044;28;20230;-20
2023/02/22 01:35:37;;;;;;;0.70;0.70;;;11.50;73.40;;;11.33;60.03;94917.25;5055764;28;20186;-20
2023/02/22 01:38:06;;;;;;;0.68;0.68;;;11.60;73.40;;;11.32;60.00;94910.38;5055811;28;20174;-19
2023/02/22 01:40:41;;;;;;;0.60;0.60;;;11.50;73.30;;;11.30;60.36;94908.97;5055577;28;20619;-19
2023/02/22 01:43:28;;;;;;;0.70;0.70;;;11.50;73.30;;;11.29;60.16;94912.59;5055532;28;20167;-19
2023/02/22 01:46:21;;;;;;;0.50;0.50;;;11.60;73.40;;;11.28;60.16;94911.78;5055575;28;20607;-20
2023/02/22 01:49:01;;;;;;;0.60;0.60;;;11.50;73.30;;;11.27;60.42;94912.00;5054561;28;20206;-19
2023/02/22 01:51:36;;;;;;;0.60;0.60;;;11.50;73.30;;;11.23;60.36;94913.38;5038115;28;20196;-19
2023/02/22 01:54:19;;;;;;;0.60;0.60;;;11.50;73.30;;;11.26;60.35;94910.38;5037814;28;20222;-19
2023/02/22 01:57:23;;;;;;;0.60;0.60;;;11.50;73.30;;;11.28;60.04;94917.03;5055292;28;20176;-19
2023/02/22 01:59:56;;;;;;;0.60;0.60;;;11.50;73.20;;;11.27;60.02;94909.38;5037976;28;20195;-18
2023/02/22 02:02:24;;;;;;;0.60;0.60;;;11.50;73.30;;;11.26;60.12;94905.13;5055260;28;20190;-18
2023/02/22 02:04:55;;;;;;;0.73;0.73;;;11.50;73.30;;;11.25;60.33;94908.75;5055422;28;20200;-18
2023/02/22 02:07:23;;;;;;;0.80;0.80;;;11.50;74.30;;;11.25;60.19;94903.50;5037748;28;20226;-18
2023/02/22 02:10:13;;;;;;;0.68;0.68;;;11.50;73.30;;;11.26;60.17;94897.25;5037546;28;20200;-18
2023/02/22 02:12:47;;;;;;;0.68;0.68;;;11.50;73.20;;;11.28;60.14;94901.28;5055371;28;20538;-19
2023/02/22 02:15:31;;;;;;;0.60;0.60;;;11.50;73.30;;;11.23;60.34;94901.06;5055269;28;20217;-18
2023/02/22 02:18:05;;;;;;;0.63;0.63;;;11.50;73.30;;;11.24;60.29;94897.41;5054000;28;20199;-19
2023/02/22 02:20:49;;;;;;;0.60;0.60;;;11.50;74.30;;;11.23;60.26;94881.88;5055016;28;20305;-19
2023/02/22 02:23:34;;;;;;;0.60;0.60;;;11.40;73.20;;;11.23;60.22;94879.25;5055200;28;20179;-18
2023/02/22 02:26:26;;;;;;;0.60;0.60;;;11.50;73.30;;;11.23;60.23;94882.69;5037535;28;20187;-19
2023/02/22 02:29:35;;;;;;;0.57;0.57;;;11.40;73.20;;;11.16;60.24;94873.97;5037385;28;20188;-18
2023/02/22 02:32:20;;;;;;;0.60;0.60;;;11.40;73.30;;;11.15;60.30;94870.53;5037380;28;20199;-19
2023/02/22 02:35:11;;;;;;;0.60;0.60;;;11.40;73.30;;;11.17;60.26;94878.22;5054768;28;20269;-19
2023/02/22 02:38:10;;;;;;;0.68;0.68;;;11.40;73.30;;;11.14;60.45;94881.22;5037662;28;20237;-19
2023/02/22 02:41:12;;;;;;;0.60;0.60;;;11.40;73.40;;;11.10;60.51;94875.56;5037190;28;20261;-21
2023/02/22 02:44:02;;;;;;;0.60;0.60;;;11.40;73.30;;;11.06;60.46;94874.34;5054860;28;20214;-19
2023/02/22 02:46:33;;;;;;;0.60;0.60;;;11.40;73.30;;;11.07;60.64;94872.53;5054914;28;20266;-20
2023/02/22 02:49:07;;;;;;;0.60;0.60;;;11.40;73.40;;;11.03;60.50;94867.69;5055090;28;20280;-20
2023/02/22 02:51:41;;;;;;;0.65;0.65;;;11.40;73.40;;;11.05;60.48;94868.28;5037918;28;20183;-19
2023/02/22 02:54:10;;;;;;;0.60;0.60;;;11.40;73.40;;;11.07;60.38;94859.41;5054849;28;20210;-19
2023/02/22 02:56:37;;;;;;;0.70;0.70;;;11.30;73.40;;;11.06;60.54;94869.09;5020587;28;20257;-19
2023/02/22 02:59:23;;;;;;;0.60;0.60;;;11.30;73.40;;;11.09;60.50;94873.16;5021482;28;20290;-30
2023/02/22 03:02:10;;;;;;;0.60;0.60;;;11.40;73.40;;;11.09;60.55;94863.44;5041181;28;20604;-33
2023/02/22 03:05:02;;;;;;;0.60;0.60;;;11.30;73.40;;;11.10;60.50;94864.28;5058493;28;20274;-21
2023/02/22 03:07:52;;;;;;;0.60;0.60;;;11.30;73.50;;;11.10;60.46;94872.94;5040676;28;20643;-19
2023/02/22 03:11:00;;;;;;;0.60;0.60;;;11.30;73.40;;;11.08;60.30;94868.91;5058403;28;20635;-19
2023/02/22 03:13:39;;;;;;;0.60;0.60;;;11.30;73.30;;;11.04;60.76;94865.84;5058446;28;20213;-19
2023/02/22 03:16:26;;;;;;;0.60;0.60;;;11.30;73.40;;;11.05;60.35;94863.03;5041127;28;20653;-19
2023/02/22 03:19:10;;;;;;;0.60;0.60;;;11.30;73.40;;;11.04;60.48;94865.84;5040514;28;20277;-19
2023/02/22 03:22:22;;;;;;;0.70;0.70;;;11.30;73.40;;;11.01;60.68;94859.19;5041396;28;20558;-19
2023/02/22 03:25:07;;;;;;;0.55;0.55;;;11.30;73.50;;;10.99;60.61;94855.94;5000589;28;20209;-19
2023/02/22 03:27:46;;;;;;;0.60;0.60;;;11.30;73.50;;;11.00;60.34;94841.81;5024615;28;20204;-19
2023/02/22 03:30:22;;;;;;;0.73;0.73;;;11.20;73.40;;;10.99;60.49;94848.06;5024447;28;20230;-20
2023/02/22 03:32:59;;;;;;;0.60;0.60;;;11.30;73.40;;;11.00;60.33;94844.44;5040475;28;20191;-20
2023/02/22 03:35:34;;;;;;;0.60;0.60;;;11.30;73.50;;;11.03;60.24;94841.44;5040865;28;20203;-19
2023/02/22 03:38:08;;;;;;;0.60;0.60;;;11.30;73.40;;;11.05;60.29;94849.91;5040425;28;20195;-20
2023/02/22 03:40:42;;;;;;;0.60;0.60;;;11.30;73.40;;;11.05;60.20;94846.47;5040417;28;20254;-21
2023/02/22 03:43:14;;;;;;;0.60;0.60;;;11.30;73.40;;;11.09;60.09;94850.31;5040558;28;20188;-20
2023/02/22 03:45:46;;;;;;;0.68;0.68;;;11.30;73.40;;;11.12;59.62;94846.47;5040522;28;20210;-19
2023/02/22 03:48:32;;;;;;;0.63;0.63;;;11.30;73.40;;;11.15;59.84;94848.72;5024100;28;20630;-19
2023/02/22 03:51:03;;;;;;;0.60;0.60;;;11.30;73.20;;;11.19;59.68;94842.06;5040113;28;20282;-19
2023/02/22 03:53:36;;;;;;;0.70;0.70;;;11.30;73.30;;;11.22;59.73;94849.56;5024144;28;20204;-19
2023/02/22 03:56:09;;;;;;;0.63;0.63;;;11.30;73.20;;;11.25;59.63;94850.97;5040050;28;20211;-19
2023/02/22 03:58:42;;;;;;;0.70;0.70;;;11.40;73.20;;;11.21;59.66;94843.50;5023729;28;20188;-20
2023/02/22 04:01:10;;;;;;;0.60;0.60;;;11.30;73.10;;;11.23;59.58;94842.47;5039952;28;20192;-19
2023/02/22 04:03:39;;;;;;;0.70;0.70;;;11.30;73.10;;;11.24;59.44;94837.03;5040293;28;20518;-19
2023/02/22 04:06:06;;;;;;;0.60;0.60;;;11.40;73.10;;;11.26;59.41;94836.84;5039832;28;20814;-20
2023/02/22 04:08:34;;;;;;;0.80;0.80;;;11.30;73.10;;;11.26;59.36;94842.09;5039893;28;20204;-19
2023/02/22 04:11:01;;;;;;;0.60;0.60;;;11.40;73.10;;;11.25;59.48;94836.03;5039020;28;20223;-19
2023/02/22 04:13:29;;;;;;;0.60;0.60;;;11.40;73.10;;;11.26;59.45;94834.22;5039871;28;20192;-19
2023/02/22 04:15:58;;;;;;;0.60;0.60;;;11.30;73.00;;;11.25;59.36;94835.22;5039527;28;20302;-19
2023/02/22 04:18:25;;;;;;;0.60;0.60;;;11.40;73.00;;;11.26;59.28;94836.84;5039518;28;20201;-21
2023/02/22 04:20:52;;;;;;;0.60;0.60;;;11.40;73.00;;;11.25;59.30;94836.03;5039396;28;20232;-19
2023/02/22 04:23:33;;;;;;;0.70;0.70;;;11.40;73.00;;;11.26;59.39;94834.22;5057259;28;20213;-19
2023/02/22 04:26:02;;;;;;;0.60;0.60;;;11.40;73.00;;;11.29;59.35;94836.44;5039438;28;20231;-19
2023/02/22 04:28:29;;;;;;;0.68;0.68;;;11.40;73.00;;;11.28;59.43;94834.81;5039243;28;20206;-19
2023/02/22 04:31:12;;;;;;;0.60;0.60;;;11.40;73.00;;;11.25;59.54;94830.78;5039683;28;20206;-19
2023/02/22 04:33:40;;;;;;;0.60;0.60;;;11.40;73.00;;;11.25;59.48;94833.41;5056836;28;20241;-19
2023/02/22 04:36:10;;;;;;;0.60;0.60;;;11.40;73.00;;;11.28;59.44;94826.94;5040093;28;20203;-20
2023/02/22 04:38:37;;;;;;;0.75;0.75;;;11.40;73.90;;;11.26;59.43;94835.03;5023018;28;20206;-19
2023/02/22 04:41:04;;;;;;;0.60;0.60;;;11.50;73.10;;;11.25;59.70;94835.22;5055817;28;20218;-19
2023/02/22 04:43:31;;;;;;;0.70;0.70;;;11.40;73.10;;;11.21;59.68;94833.00;5039041;28;20208;-20
2023/02/22 04:46:13;;;;;;;0.70;0.70;;;11.40;73.20;;;11.18;59.55;94830.78;5039121;28;20192;-20
2023/02/22 04:48:41;;;;;;;0.70;0.70;;;11.30;73.00;;;11.16;59.55;94829.34;5039293;28;20654;-19
2023/02/22 04:51:08;;;;;;;0.60;0.60;;;11.30;73.00;;;11.13;59.33;94827.09;5038945;28;20701;-19
2023/02/22 04:53:38;;;;;;;0.60;0.60;;;11.30;73.20;;;11.10;59.67;94823.06;5039019;28;20195;-19
2023/02/22 04:56:05;;;;;;;0.57;0.57;;;11.30;73.20;;;11.08;59.72;94827.69;5038769;28;20302;-19
2023/02/22 04:58:32;;;;;;;0.60;0.60;;;11.20;73.10;;;11.06;59.77;94824.47;5055313;28;20223;-19
2023/02/22 05:01:00;;;;;;;0.80;0.80;;;11.20;73.10;;;11.03;59.79;94817.81;5056317;28;20199;-19
2023/02/22 05:03:27;;;;;;;0.60;0.60;;;11.20;73.20;;;11.04;59.78;94824.66;5038711;28;20278;-20
2023/02/22 05:05:54;;;;;;;0.70;0.70;;;11.20;73.20;;;11.04;59.88;94824.66;5038917;28;20195;-20
2023/02/22 05:08:21;;;;;;;0.70;0.70;;;11.20;73.20;;;11.03;59.72;94817.81;5056414;28;20693;-19
2023/02/22 05:10:48;;;;;;;0.80;0.80;;;11.20;73.20;;;11.05;59.73;94822.84;5056144;28;20199;-19
2023/02/22 05:13:15;;;;;;;0.77;0.77;;;11.20;73.30;;;11.02;59.72;94826.69;5056102;28;20202;-21
2023/02/22 05:15:42;;;;;;;0.60;0.60;;;11.20;73.30;;;11.01;59.71;94824.22;5038574;28;20654;-21
2023/02/22 05:18:10;;;;;;;0.80;0.80;;;11.20;73.30;;;11.01;59.83;94814.56;5055874;28;20207;-20
2023/02/22 05:20:37;;;;;;;0.70;0.70;;;11.10;73.30;;;11.00;59.78;94820.00;5056062;28;20247;-19
2023/02/22 05:23:04;;;;;;;0.70;0.70;;;11.20;73.30;;;10.98;59.81;94814.16;5056039;28;20224;-21
2023/02/22 05:25:32;;;;;;;0.70;0.70;;;11.10;73.20;;;10.95;59.78;94819.78;5055838;28;20192;-19
2023/02/22 05:28:04;;;;;;;0.70;0.70;;;11.10;74.20;;;10.93;59.93;94811.31;5055786;28;20201;-19
2023/02/22 05:30:35;;;;;;;0.60;0.60;;;11.20;73.30;;;10.96;59.98;94813.53;5055776;28;20610;-22
2023/02/22 05:33:02;;;;;;;0.68;0.68;;;11.10;73.20;;;10.98;59.92;94816.78;5056022;28;20609;-19
2023/02/22 05:35:29;;;;;;;0.60;0.60;;;11.20;73.30;;;10.99;59.83;94815.78;5055564;28;20245;-19
2023/02/22 05:37:58;;;;;;;0.60;0.60;;;11.20;73.30;;;11.00;59.65;94812.94;5037889;28;20206;-19
2023/02/22 05:40:26;;;;;;;0.70;0.70;;;11.10;73.20;;;11.01;59.64;94811.94;5055609;28;20191;-19
2023/02/22 05:42:55;;;;;;;0.77;0.77;;;11.20;73.30;;;11.01;59.88;94809.31;5038203;28;20525;-19
2023/02/22 05:45:26;;;;;;;0.60;0.60;;;11.10;73.20;;;10.99;59.83;94807.91;5055478;28;20195;-20
2023/02/22 05:47:54;;;;;;;0.60;0.60;;;11.20;73.30;;;11.01;59.81;94816.34;5055542;28;20186;-19
2023/02/22 05:50:23;;;;;;;0.60;0.60;;;11.20;73.30;;;10.99;59.93;94818.41;5037872;28;20214;-19
2023/02/22 05:52:51;;;;;;;0.60;0.60;;;11.20;73.30;;;11.02;59.86;94825.84;5055348;28;20211;-19
2023/02/22 05:55:22;;;;;;;0.70;0.70;;;11.20;73.40;;;11.01;59.81;94819.81;5055211;28;20719;-19
2023/02/22 05:57:50;;;;;;;0.50;0.50;;;11.20;73.40;;;11.03;59.85;94816.97;5055677;28;20184;-19
2023/02/22 06:00:27;;;;;;;0.60;0.60;;;11.20;73.40;;;11.02;59.94;94816.19;5038390;28;20233;-19
2023/02/22 06:03:01;;;;;;;0.60;0.60;;;11.20;73.40;;;11.01;59.94;94819.81;5055809;28;20276;-20
2023/02/22 06:05:29;;;;;;;0.60;0.60;;;11.10;73.30;;;11.02;59.87;94820.59;5055411;28;20187;-19
2023/02/22 06:07:57;;;;;;;0.65;0.65;;;11.20;73.40;;;11.02;59.98;94824.06;5055029;28;20627;-19
2023/02/22 06:10:25;;;;;;;0.60;0.60;;;11.10;73.30;;;11.02;59.71;94818.81;5055114;28;20203;-20
2023/02/22 06:12:54;;;;;;;0.60;0.60;;;11.10;73.30;;;11.03;59.60;94822.22;5037706;28;20203;-19
2023/02/22 06:15:22;;;;;;;0.70;0.70;;;11.10;73.30;;;11.02;59.84;94823.22;5037858;28;20228;-20
2023/02/22 06:17:50;;;;;;;0.60;0.60;;;11.10;73.30;;;11.01;59.69;94824.22;5054851;28;20203;-19
2023/02/22 06:20:21;;;;;;;0.60;0.60;;;11.20;73.40;;;11.00;59.74;94827.88;5055057;28;20231;-20
2023/02/22 06:22:55;;;;;;;0.70;0.70;;;11.10;73.40;;;10.97;59.96;94821.19;5054989;28;20262;-20
2023/02/22 06:25:26;;;;;;;0.60;0.60;;;11.10;73.40;;;10.97;60.04;94826.44;5005504;28;20187;-19
2023/02/22 06:27:53;;;;;;;0.60;0.60;;;11.10;73.40;;;10.96;60.06;94827.47;5055173;28;20188;-19
2023/02/22 06:30:23;;;;;;;0.60;0.60;;;11.10;73.40;;;10.94;60.31;94832.09;5037411;28;20203;-19
2023/02/22 06:32:51;;;;;;;0.60;0.60;;;11.20;73.50;;;10.96;60.37;94829.28;5037821;28;20206;-19
2023/02/22 06:35:18;;;;;;;0.70;0.70;;;11.10;73.40;;;10.97;60.25;94833.53;5020553;28;20226;-19
2023/02/22 06:37:45;;;;;;;0.60;0.60;;;11.20;73.50;;;10.98;60.24;94832.50;5037655;28;20216;-19
2023/02/22 06:40:14;;;;;;;0.60;0.60;;;11.20;73.50;;;11.02;60.20;94836.34;5054994;28;20249;-19
2023/02/22 06:42:41;;;;;;;0.75;0.75;;;11.20;73.60;;;11.05;60.24;94834.16;5054827;28;20203;-19
2023/02/22 06:45:09;;;;;;;0.60;0.60;;;11.20;73.60;;;11.10;60.13;94836.19;5054706;28;20199;-19
2023/02/22 06:47:40;;;;;;;0.60;0.60;;;11.20;73.60;;;11.17;60.15;94844.09;5037761;28;20676;-20
2023/02/22 06:50:21;;;;;;;0.60;0.60;;;11.30;73.80;;;11.20;60.27;94851.56;5054856;28;20207;-20
2023/02/22 06:52:48;;;;;;;0.60;0.60;;;11.40;73.90;;;11.27;60.11;94848.97;5054952;28;20194;-19
2023/02/22 06:55:28;;;;;;;0.60;0.60;;;11.40;73.90;;;11.32;60.12;94850.00;5054542;28;20215;-19
2023/02/22 06:57:55;;;;;;;0.60;0.60;;;11.40;73.90;;;11.35;60.11;94849.59;5054539;28;20180;-19
2023/02/22 07:00:25;;;;;;;0.50;0.50;;;11.40;73.80;;;11.38;59.93;94851.81;5054544;28;20195;-19
2023/02/22 07:02:54;;;;;;;0.50;0.50;;;11.50;73.80;;;11.44;60.09;94847.59;5055147;28;20180;-19
2023/02/22 07:05:23;;;;;;;0.50;0.50;;;11.60;73.80;;;11.51;59.99;94855.47;5054781;28;20196;-19
2023/02/22 07:07:53;;;;;;;0.70;0.70;;;11.60;73.70;;;11.54;59.58;94847.22;5054374;28;20199;-20
2023/02/22 07:10:26;;;;;;;0.60;0.60;;;11.70;73.80;;;11.61;60.04;94847.22;5054487;28;20600;-19
2023/02/22 07:12:53;;;;;;;0.57;0.57;;;11.70;73.70;;;11.69;59.87;94844.41;5054767;28;20180;-19
2023/02/22 07:15:23;;;;;;;0.70;0.70;;;11.80;73.80;;;11.77;59.68;94846.06;5054632;28;20223;-19
2023/02/22 07:17:51;;;;;;;0.57;0.57;;;11.80;73.70;;;11.84;59.73;94852.91;5054228;28;20358;-19
2023/02/22 07:20:20;;;;;;;0.60;0.60;;;11.90;74.60;;;11.90;59.65;94850.50;5054219;28;20230;-19
2023/02/22 07:22:47;;;;;;;0.60;0.60;;;12.00;73.70;;;11.97;59.71;94854.78;5037301;28;20252;-20
2023/02/22 07:25:15;;;;;;;0.55;0.55;;;12.10;73.70;;;12.02;59.71;94838.38;5054620;28;20188;-20
2023/02/22 07:27:42;;;;;;;0.63;0.63;;;12.10;74.50;;;12.11;59.75;94847.69;5054598;28;20547;-20
2023/02/22 07:30:29;;;;;;;0.60;0.60;;;12.20;73.60;;;12.17;59.53;94844.25;5054545;28;20276;-19
2023/02/22 07:33:04;;;;;;;0.70;0.70;;;12.20;73.40;;;12.26;59.54;94846.69;5054566;28;20187;-19
2023/02/22 07:35:37;;;;;;;0.50;0.50;;;12.30;73.50;;;12.33;59.40;94847.50;5054202;28;20205;-19
2023/02/22 07:38:09;;;;;;;0.50;0.50;;;12.40;73.50;;;12.38;59.43;94839.78;5054480;28;20516;-19
2023/02/22 07:40:38;;;;;;;0.70;0.70;;;12.50;73.40;;;12.44;59.24;94843.44;5054500;28;20196;-19
2023/02/22 07:43:18;;;;;;;0.50;0.50;;;12.60;73.30;;;12.54;59.24;94841.19;5054220;28;20203;-20
2023/02/22 07:45:47;;;;;;;0.60;0.60;;;12.70;73.20;;;12.63;58.91;94849.66;5036780;28;20199;-19
2023/02/22 07:48:16;;;;;;;0.60;0.60;;;12.70;73.20;;;12.70;59.01;94844.38;5040521;28;20298;-19
2023/02/22 07:50:44;;;;;;;0.60;0.60;;;12.80;73.10;;;12.77;58.92;94839.91;5040138;28;20590;-19
2023/02/22 07:53:17;;;;;;;0.60;0.60;;;12.90;73.10;;;12.82;58.58;94834.84;5024185;28;20199;-19
2023/02/22 07:55:45;;;;;;;0.60;0.60;;;13.00;72.90;;;12.86;57.96;94832.59;5057650;28;20298;-19
2023/02/22 07:58:14;;;;;;;0.60;0.60;;;13.10;72.60;;;12.90;58.07;94831.97;5057920;28;20192;-19
2023/02/22 08:00:42;;;;;;;0.60;0.60;;;13.20;72.40;;;12.98;57.88;94836.19;5057778;28;20187;-19
2023/02/22 08:03:12;;;;;;;0.60;0.60;;;13.20;72.30;;;13.01;57.67;94834.97;5023528;28;20195;-20
2023/02/22 08:05:45;;;;;;;0.60;0.60;;;13.30;72.10;;;13.05;56.93;94831.72;5057407;28;20191;-19
2023/02/22 08:08:14;;;;;;;0.50;0.50;;;13.30;71.70;;;13.14;57.61;94837.53;5057773;28;20184;-19
2023/02/22 08:10:46;;;;;;;0.50;0.50;;;13.40;71.80;;;13.18;56.98;94830.81;5057850;28;20203;-19
2023/02/22 08:13:14;;;;;;;0.60;0.60;;;13.50;71.60;;;13.26;57.31;94832.44;5040492;28;20603;-19
2023/02/22 08:15:48;;;;;;;0.50;0.50;;;13.50;71.70;;;13.34;57.32;94828.72;5057450;28;20207;-21
2023/02/22 08:18:17;;;;;;;0.80;0.80;;;13.60;71.70;;;13.45;57.51;94823.63;5057302;28;20210;-19
2023/02/22 08:20:47;;;;;;;0.50;0.50;;;13.70;71.80;;;13.57;56.98;94828.22;5057200;28;20310;-20
2023/02/22 08:23:16;;;;;;;0.60;0.60;;;13.80;71.50;;;13.65;56.75;94820.06;5057076;28;20206;-21
2023/02/22 08:25:43;;;;;;;0.57;0.57;;;13.90;71.50;;;13.73;56.47;94816.34;5057107;28;20633;-20
2023/02/22 08:28:14;;;;;;;0.60;0.60;;;14.00;71.40;;;13.80;56.15;94806.56;5056824;28;20294;-22
2023/02/22 08:30:42;;;;;;;0.57;0.57;;;14.10;71.00;;;13.85;55.67;94811.22;5039671;28;20214;-21
2023/02/22 08:33:13;;;;;;;0.60;0.60;;;14.20;70.80;;;13.87;55.49;94806.53;5039691;28;20195;-20
2023/02/22 08:35:41;;;;;;;0.50;0.50;;;14.20;70.30;;;13.90;55.39;94811.38;5039712;28;20238;-19
2023/02/22 08:38:19;;;;;;;0.73;0.73;;;14.30;70.30;;;13.91;55.51;94813.81;5039587;28;20651;-19
2023/02/22 08:40:47;;;;;;;0.70;0.70;;;14.30;70.30;;;13.92;55.42;94815.41;5039282;28;20192;-20
2023/02/22 08:43:14;;;;;;;0.55;0.55;;;14.40;70.30;;;13.97;55.43;94806.84;5056694;28;20546;-20
2023/02/22 08:45:43;;;;;;;0.75;0.75;;;14.40;70.00;;;13.95;54.73;94816.00;5056892;28;20199;-20
2023/02/22 08:48:10;;;;;;;0.50;0.50;;;14.40;69.80;;;13.97;54.95;94806.06;5056852;28;20656;-20
2023/02/22 08:50:40;;;;;;;0.70;0.70;;;14.40;69.80;;;13.98;54.62;94808.47;5056457;28;20195;-19
2023/02/22 08:53:08;;;;;;;0.60;0.60;;;14.40;69.70;;;14.02;54.32;94808.84;5056514;28;20283;-19
2023/02/22 08:55:38;;;;;;;0.50;0.50;;;14.40;69.30;;;14.04;54.31;94809.44;5056401;28;20289;-21
2023/02/22 08:58:09;;;;;;;0.80;0.80;;;14.50;69.40;;;14.14;54.29;94808.97;5056555;28;20196;-20
2023/02/22 09:00:38;;;;;;;0.90;0.90;;;14.60;69.30;;;14.24;54.04;94807.44;5038851;28;20194;-19
2023/02/22 09:03:09;;;;;;;0.63;0.63;;;14.60;69.20;;;14.31;53.89;94812.66;5056584;28;20188;-20
2023/02/22 09:05:36;;;;;;;0.60;0.60;;;14.70;69.20;;;14.42;53.80;94813.78;5039315;28;20246;-19
2023/02/22 09:08:03;;;;;;;0.70;0.70;;;14.80;70.00;;;14.55;53.81;94807.56;5056216;28;20725;-23
2023/02/22 09:10:33;;;;;;;0.60;0.60;;;14.90;69.20;;;14.64;52.36;94811.50;5056093;28;20195;-19
2023/02/22 09:13:02;;;;;;;0.50;0.50;;;14.90;68.30;;;14.78;52.85;94809.56;5056387;28;20598;-21
2023/02/22 09:15:31;;;;;;;0.60;0.60;;;15.10;68.40;;;14.92;51.94;94810.22;5056290;28;20215;-19
2023/02/22 09:17:59;;;;;;;0.60;0.60;;;15.20;68.20;;;15.02;51.73;94812.34;5039193;28;20241;-19
2023/02/22 09:20:27;;;;;;;0.60;0.60;;;15.30;67.80;;;15.15;51.73;94811.38;5055810;28;20223;-20
2023/02/22 09:22:54;;;;;;;0.50;0.50;;;15.40;67.80;;;15.26;50.49;94813.25;5056220;28;20246;-20
2023/02/22 09:25:22;;;;;;;0.57;0.57;;;15.50;67.30;;;15.39;49.83;94809.59;5055910;28;20195;-20
2023/02/22 09:27:54;;;;;;;0.60;0.60;;;15.70;67.00;;;15.48;50.10;94810.91;5055815;28;20627;-19
2023/02/22 09:30:30;;;;;;;0.70;0.70;;;15.70;66.70;;;15.55;49.63;94802.09;5055739;28;20184;-19
2023/02/22 09:33:19;;;;;;;0.50;0.50;;;15.80;66.20;;;15.63;49.89;94796.47;5056093;28;20272;-20
2023/02/22 09:35:48;;;;;;;0.60;0.60;;;15.90;66.70;;;15.69;49.47;94798.22;5055688;28;20246;-19
2023/02/22 09:38:21;;;;;;;0.50;0.50;;;16.00;66.10;;;15.80;50.25;94796.63;5056212;28;20191;-20
2023/02/22 09:40:59;;;;;;;0.50;0.50;;;16.10;66.20;;;15.83;49.33;94794.38;5055540;28;20262;-20
2023/02/22 09:43:48;;;;;;;0.55;0.55;;;16.20;66.10;;;15.87;48.36;94788.63;5038262;28;20278;-20
2023/02/22 09:46:36;;;;;;;0.50;0.50;;;16.20;65.50;;;15.88;48.19;94790.22;5038532;28;20554;-19
2023/02/22 09:49:56;;;;;;;0.50;0.50;;;16.30;65.70;;;15.89;48.75;94795.28;5038520;28;20206;-20
2023/02/22 09:52:38;;;;;;;0.50;0.50;;;16.30;66.60;;;15.95;48.66;94790.94;5037890;28;20309;-19
2023/02/22 09:55:25;;;;;;;0.60;0.60;;;16.40;65.30;;;15.99;48.27;94789.44;5038089;28;20607;-19
2023/02/22 09:57:55;;;;;;;0.50;0.50;;;16.40;65.10;;;16.01;48.37;94787.38;5038804;28;20187;-21
2023/02/22 10:00:37;;;;;;;0.50;0.50;;;16.40;64.80;;;16.02;48.01;94789.00;5005783;28;20584;-20
2023/02/22 10:03:25;;;;;;;0.55;0.55;;;16.40;64.90;;;16.00;48.54;94786.59;5021929;28;20202;-20
2023/02/22 10:06:05;;;;;;;0.50;0.50;;;16.40;65.10;;;16.04;48.06;94792.22;5038212;28;20258;-17
2023/02/22 10:08:33;;;;;;;0.50;0.50;;;16.40;64.90;;;16.06;48.01;94791.97;5054844;28;20222;-17
2023/02/22 10:11:22;;;;;;;0.50;0.50;;;16.50;64.80;;;16.11;48.45;94789.44;5054984;28;20191;-17
2023/02/22 10:14:08;;;;;;;0.50;0.50;;;16.50;64.70;;;16.13;47.96;94785.53;5037888;28;20198;-18
2023/02/22 10:16:53;;;;;;;0.50;0.50;;;16.50;64.70;;;16.22;48.01;94796.59;5054938;28;20686;-17
2023/02/22 10:20:19;;;;;;;0.60;0.60;;;16.60;64.80;;;16.29;48.08;94786.69;5055121;28;20289;-17
2023/02/22 10:23:14;;;;;;;0.50;0.50;;;16.60;64.80;;;16.38;48.09;94786.34;5032355;28;20217;-17
2023/02/22 10:25:44;;;;;;;0.50;0.50;;;16.70;64.50;;;16.46;47.38;94788.66;5055061;28;20171;-18
2023/02/22 10:28:23;;;;;;;0.60;0.60;;;16.80;64.60;;;16.58;47.72;94784.13;5037892;28;20180;-17
2023/02/22 10:30:57;;;;;;;0.50;0.50;;;16.90;64.30;;;16.69;47.20;94784.38;5037479;28;20499;-17
2023/02/22 10:33:42;;;;;;;0.50;0.50;;;17.00;64.30;;;16.80;46.58;94775.59;5055082;28;20237;-17
2023/02/22 10:36:18;;;;;;;0.57;0.57;;;17.10;64.50;;;16.91;46.41;94777.41;5020865;28;20211;-17
2023/02/22 10:39:00;;;;;;;0.50;0.50;;;17.20;64.00;;;17.05;47.18;94777.16;5037863;28;20591;-17
2023/02/22 10:41:32;;;;;;;0.50;0.50;;;17.30;64.10;;;17.16;46.26;94771.00;5021202;28;20629;-17
2023/02/22 10:44:01;;;;;;;0.50;0.50;;;17.50;63.70;;;17.28;45.97;94769.13;5055036;28;20180;-17
2023/02/22 10:46:31;;;;;;;0.50;0.50;;;17.60;63.60;;;17.40;46.81;94771.69;5054678;28;20635;-17